Torm Republican — OYNE2 — position and weather

sailwx.info

Track history (hours):
 
Tides and Currents Weather Stations Pressure Air Temp Water Temp Dewpoint Dewpoint Depression Visibility Wind Speed Wind Dir Waves Ship Positions

Torm Republican

Last reported at 2015-Aug-03 06:33 UTC. Time now 2015-Aug-03 06:34 UTC.
Position N 57°14' E 019°45'.

Length 183 m; draft 6.5 m.

Type: Ship (hazmat cat A). MMSI: 220560000.

Date/timePositionNaut miles runAvg speedWind from/ knotsBaromVisibWave heightAir tempDewpointWater temp
2015-Aug-03 06:33N 57°14' E 019°45'2512.6
2015-Aug-03 04:33N 56°52' E 019°22'1312.5
2015-Aug-03 03:33N 56°40' E 019°12'1312.5
2015-Aug-03 02:32N 56°29' E 019°01'1212.6
2015-Aug-03 01:33N 56°18' E 018°50'1313.0
2015-Aug-03 00:33N 56°12' E 018°30'1312.9
2015-Aug-02 23:33N 56°05' E 018°11'1413.0
2015-Aug-02 22:30N 55°57' E 017°50'1512.8
2015-Aug-02 21:19N 55°52' E 017°24'1012.9
2015-Aug-02 20:33N 55°50' E 017°07'1312.9
2015-Aug-02 19:33N 55°47' E 016°45'1313.0
2015-Aug-02 18:33N 55°44' E 016°23'1313.0
2015-Aug-02 17:33N 55°40' E 016°01'1313.1
2015-Aug-02 16:33N 55°34' E 015°40'1312.8
2015-Aug-02 15:33N 55°28' E 015°20'1313.0
2015-Aug-02 14:33N 55°21' E 015°00'1111.5
2015-Aug-02 13:33N 55°18' E 014°41'1414.0
2015-Aug-02 12:33N 55°11' E 014°20'1413.7
2015-Aug-02 11:33N 55°10' E 013°56'1413.6
2015-Aug-02 10:33N 55°11' E 013°32'1413.7
2015-Aug-02 09:33N 55°13' E 013°09'1414.0
2015-Aug-02 08:34N 55°16' E 012°45'1211.8
2015-Aug-02 07:34N 55°28' E 012°41'1110.9
2015-Aug-02 06:33N 55°39' E 012°41'1312.9
2015-Aug-02 05:34N 55°52' E 012°40'1212.4
2015-Aug-02 04:33N 56°04' E 012°37'1211.8
2015-Aug-02 03:34N 56°12' E 012°21'1413.9
2015-Aug-02 02:33N 56°23' E 012°06'1313.1
2015-Aug-02 01:33N 56°35' E 011°56'1313.0
2015-Aug-02 00:33N 56°47' E 011°51'1313.2
2015-Aug-01 23:33N 56°60' E 011°43'1313.0
2015-Aug-01 22:33N 57°12' E 011°35'1313.2
2015-Aug-01 21:33N 57°24' E 011°26'1313.0
2015-Aug-01 20:33N 57°33' E 011°08'1413.6
2015-Aug-01 19:33N 57°38' E 010°44'4 1.2
2015-Aug-01 16:29N 57°41' E 010°41'0 0.0
2015-Aug-01 15:29N 57°41' E 010°41'0 0.0
2015-Aug-01 14:32N 57°41' E 010°41'0 0.0
2015-Aug-01 13:05N 57°41' E 010°41'0 0.0
2015-Aug-01 11:32N 57°41' E 010°41'4 3.8
2015-Aug-01 10:33N 57°44' E 010°45'7 6.7
2015-Aug-01 09:33N 57°47' E 010°33'13 8.8
2015-Aug-01 08:05N 57°47' E 010°09'5 7.6
2015-Aug-01 07:23N 57°46' E 009°59'8 7.7
2015-Aug-01 06:24N 57°48' E 009°45'1111.9
2015-Aug-01 05:29N 57°45' E 009°26'2114.9
2015-Aug-01 04:03N 57°34' E 008°52'815.4
2015-Aug-01 03:32N 57°29' E 008°39'21114.0
2015-Jul-31 12:26N 54°29' E 005°26'1313.7
2015-Jul-31 11:31N 54°20' E 005°10'1313.6
2015-Jul-31 10:33N 54°11' E 004°53'1313.3
2015-Jul-31 09:33N 54°01' E 004°38'18114.0
2015-Jul-30 20:34N 51°24' E 002°08'1211.6
2015-Jul-30 19:33N 51°13' E 002°03'1211.6
2015-Jul-30 18:34N 51°07' E 001°47'1111.2
2015-Jul-30 17:33N 50°59' E 001°34'1111.5
2015-Jul-30 16:33N 50°49' E 001°27'1712.8
2015-Jul-30 15:15N 50°36' E 001°11'1113.4
2015-Jul-30 14:26N 50°29' E 000°57'  
2015-Jul-27 22:33N 39°45' W 011°43'1413.8
2015-Jul-27 21:33N 39°32' W 011°51'1613.6
2015-Jul-27 20:21N 39°18' W 012°01'1113.5
2015-Jul-27 19:32N 39°08' W 012°07'1413.7
2015-Jul-27 18:31N 38°55' W 012°14'1413.7
2015-Jul-27 17:32N 38°43' W 012°22'1813.9
2015-Jul-27 16:16N 38°27' W 012°32'1114.1
2015-Jul-27 15:28N 38°17' W 012°38'1314.0
2015-Jul-27 14:32N 38°05' W 012°45'1413.8
2015-Jul-27 13:33N 37°53' W 012°53'9713.8
2015-Jul-27 06:33N 36°26' W 013°46'1713.6
2015-Jul-27 05:16N 36°10' W 013°55'  
Track history (hours):
 
Tides and Currents Weather Stations Pressure Air Temp Water Temp Dewpoint Dewpoint Depression Visibility Wind Speed Wind Dir Waves Ship Positions

Torm Republican

Last reported at 2015-Aug-03 06:33 UTC. Time now 2015-Aug-03 06:34 UTC.
Position N 57°14' E 019°45'.

Length 183 m; draft 6.5 m.

Type: Ship (hazmat cat A). MMSI: 220560000.

Date/timePositionNaut miles runAvg speedWind from/ knotsBaromVisibWave heightAir tempDewpointWater temp
2015-Aug-03 06:33N 57°14' E 019°45'2512.6
2015-Aug-03 04:33N 56°52' E 019°22'1312.5
2015-Aug-03 03:33N 56°40' E 019°12'1312.5
2015-Aug-03 02:32N 56°29' E 019°01'1212.6
2015-Aug-03 01:33N 56°18' E 018°50'1313.0
2015-Aug-03 00:33N 56°12' E 018°30'1312.9
2015-Aug-02 23:33N 56°05' E 018°11'1413.0
2015-Aug-02 22:30N 55°57' E 017°50'1512.8
2015-Aug-02 21:19N 55°52' E 017°24'1012.9
2015-Aug-02 20:33N 55°50' E 017°07'1312.9
2015-Aug-02 19:33N 55°47' E 016°45'1313.0
2015-Aug-02 18:33N 55°44' E 016°23'1313.0
2015-Aug-02 17:33N 55°40' E 016°01'1313.1
2015-Aug-02 16:33N 55°34' E 015°40'1312.8
2015-Aug-02 15:33N 55°28' E 015°20'1313.0
2015-Aug-02 14:33N 55°21' E 015°00'1111.5
2015-Aug-02 13:33N 55°18' E 014°41'1414.0
2015-Aug-02 12:33N 55°11' E 014°20'1413.7
2015-Aug-02 11:33N 55°10' E 013°56'1413.6
2015-Aug-02 10:33N 55°11' E 013°32'1413.7
2015-Aug-02 09:33N 55°13' E 013°09'1414.0
2015-Aug-02 08:34N 55°16' E 012°45'1211.8
2015-Aug-02 07:34N 55°28' E 012°41'1110.9
2015-Aug-02 06:33N 55°39' E 012°41'1312.9
2015-Aug-02 05:34N 55°52' E 012°40'1212.4
2015-Aug-02 04:33N 56°04' E 012°37'1211.8
2015-Aug-02 03:34N 56°12' E 012°21'1413.9
2015-Aug-02 02:33N 56°23' E 012°06'1313.1
2015-Aug-02 01:33N 56°35' E 011°56'1313.0
2015-Aug-02 00:33N 56°47' E 011°51'1313.2
2015-Aug-01 23:33N 56°60' E 011°43'1313.0
2015-Aug-01 22:33N 57°12' E 011°35'1313.2
2015-Aug-01 21:33N 57°24' E 011°26'1313.0
2015-Aug-01 20:33N 57°33' E 011°08'1413.6
2015-Aug-01 19:33N 57°38' E 010°44'4 1.2
2015-Aug-01 16:29N 57°41' E 010°41'0 0.0
2015-Aug-01 15:29N 57°41' E 010°41'0 0.0
2015-Aug-01 14:32N 57°41' E 010°41'0 0.0
2015-Aug-01 13:05N 57°41' E 010°41'0 0.0
2015-Aug-01 11:32N 57°41' E 010°41'4 3.8
2015-Aug-01 10:33N 57°44' E 010°45'7 6.7
2015-Aug-01 09:33N 57°47' E 010°33'13 8.8
2015-Aug-01 08:05N 57°47' E 010°09'5 7.6
2015-Aug-01 07:23N 57°46' E 009°59'8 7.7
2015-Aug-01 06:24N 57°48' E 009°45'1111.9
2015-Aug-01 05:29N 57°45' E 009°26'2114.9
2015-Aug-01 04:03N 57°34' E 008°52'815.4
2015-Aug-01 03:32N 57°29' E 008°39'21114.0
2015-Jul-31 12:26N 54°29' E 005°26'1313.7
2015-Jul-31 11:31N 54°20' E 005°10'1313.6
2015-Jul-31 10:33N 54°11' E 004°53'1313.3
2015-Jul-31 09:33N 54°01' E 004°38'18114.0
2015-Jul-30 20:34N 51°24' E 002°08'1211.6
2015-Jul-30 19:33N 51°13' E 002°03'1211.6
2015-Jul-30 18:34N 51°07' E 001°47'1111.2
2015-Jul-30 17:33N 50°59' E 001°34'1111.5
2015-Jul-30 16:33N 50°49' E 001°27'1712.8
2015-Jul-30 15:15N 50°36' E 001°11'1113.4
2015-Jul-30 14:26N 50°29' E 000°57'  
2015-Jul-27 22:33N 39°45' W 011°43'1413.8
2015-Jul-27 21:33N 39°32' W 011°51'1613.6
2015-Jul-27 20:21N 39°18' W 012°01'1113.5
2015-Jul-27 19:32N 39°08' W 012°07'1413.7
2015-Jul-27 18:31N 38°55' W 012°14'1413.7
2015-Jul-27 17:32N 38°43' W 012°22'1813.9
2015-Jul-27 16:16N 38°27' W 012°32'1114.1
2015-Jul-27 15:28N 38°17' W 012°38'1314.0
2015-Jul-27 14:32N 38°05' W 012°45'1413.8
2015-Jul-27 13:33N 37°53' W 012°53'9713.8
2015-Jul-27 06:33N 36°26' W 013°46'1713.6
2015-Jul-27 05:16N 36°10' W 013°55'  

Dump ship's entire track history